sensor_id;sensor_type;location;lat;lon;timestamp;pressure;altitude;pressure_sealevel;temperature;humidity
19795;BME280;10057;59.402;17.866;2023-03-31T00:00:06;100378.63;;;-0.10;69.35
19795;BME280;10057;59.402;17.866;2023-03-31T00:02:40;100368.16;;;-0.15;69.46
19795;BME280;10057;59.402;17.866;2023-03-31T00:05:08;100377.75;;;-0.17;69.36
19795;BME280;10057;59.402;17.866;2023-03-31T00:07:35;100382.09;;;-0.19;69.59
19795;BME280;10057;59.402;17.866;2023-03-31T00:10:04;100377.75;;;-0.23;69.44
19795;BME280;10057;59.402;17.866;2023-03-31T00:12:43;100372.53;;;-0.26;69.68
19795;BME280;10057;59.402;17.866;2023-03-31T00:15:10;100369.91;;;-0.26;69.54
19795;BME280;10057;59.402;17.866;2023-03-31T00:17:37;100368.16;;;-0.26;69.42
19795;BME280;10057;59.402;17.866;2023-03-31T00:20:04;100363.84;;;-0.27;69.62
19795;BME280;10057;59.402;17.866;2023-03-31T00:22:31;100369.91;;;-0.25;69.36
19795;BME280;10057;59.402;17.866;2023-03-31T00:24:58;100363.84;;;-0.23;69.24
19795;BME280;10057;59.402;17.866;2023-03-31T00:27:24;100365.56;;;-0.22;69.56
19795;BME280;10057;59.402;17.866;2023-03-31T00:29:53;100348.19;;;-0.22;69.41
19795;BME280;10057;59.402;17.866;2023-03-31T00:32:21;100346.44;;;-0.25;69.04
19795;BME280;10057;59.402;17.866;2023-03-31T00:34:48;100349.06;;;-0.26;69.47
19795;BME280;10057;59.402;17.866;2023-03-31T00:37:14;100342.09;;;-0.30;69.39
19795;BME280;10057;59.402;17.866;2023-03-31T00:39:41;100336.88;;;-0.32;69.61
19795;BME280;10057;59.402;17.866;2023-03-31T00:42:11;100333.41;;;-0.29;69.37
19795;BME280;10057;59.402;17.866;2023-03-31T00:48:05;100338.63;;;-0.32;69.44
19795;BME280;10057;59.402;17.866;2023-03-31T00:50:45;100331.66;;;-0.36;69.37
19795;BME280;10057;59.402;17.866;2023-03-31T00:53:16;100329.91;;;-0.36;69.36
19795;BME280;10057;59.402;17.866;2023-03-31T00:55:50;100333.41;;;-0.37;69.33
19795;BME280;10057;59.402;17.866;2023-03-31T00:58:19;100333.41;;;-0.40;69.33
19795;BME280;10057;59.402;17.866;2023-03-31T01:00:48;100339.47;;;-0.44;69.44
19795;BME280;10057;59.402;17.866;2023-03-31T01:03:18;100329.91;;;-0.46;69.50
19795;BME280;10057;59.402;17.866;2023-03-31T01:05:52;100333.41;;;-0.44;69.44
19795;BME280;10057;59.402;17.866;2023-03-31T01:08:24;100324.72;;;-0.43;69.55
19795;BME280;10057;59.402;17.866;2023-03-31T01:11:00;100329.06;;;-0.47;69.32
19795;BME280;10057;59.402;17.866;2023-03-31T01:13:29;100322.97;;;-0.49;69.76
19795;BME280;10057;59.402;17.866;2023-03-31T01:15:57;100317.75;;;-0.51;69.45
19795;BME280;10057;59.402;17.866;2023-03-31T01:18:24;100319.47;;;-0.53;69.61
19795;BME280;10057;59.402;17.866;2023-03-31T01:35:52;100308.19;;;-0.59;69.44
19795;BME280;10057;59.402;17.866;2023-03-31T01:47:05;100316.88;;;-0.60;69.31
19795;BME280;10057;59.402;17.866;2023-03-31T01:49:53;100309.94;;;-0.61;69.29
19795;BME280;10057;59.402;17.866;2023-03-31T01:52:26;100306.44;;;-0.60;69.14
19795;BME280;10057;59.402;17.866;2023-03-31T01:55:29;100296.88;;;-0.58;69.30
19795;BME280;10057;59.402;17.866;2023-03-31T01:58:05;100292.56;;;-0.61;69.33
19795;BME280;10057;59.402;17.866;2023-03-31T02:00:39;100307.31;;;-0.63;69.53
19795;BME280;10057;59.402;17.866;2023-03-31T02:03:15;100296.88;;;-0.63;69.26
19795;BME280;10057;59.402;17.866;2023-03-31T02:05:59;100301.22;;;-0.63;69.23
19795;BME280;10057;59.402;17.866;2023-03-31T02:08:35;100287.34;;;-0.64;69.48
19795;BME280;10057;59.402;17.866;2023-03-31T02:11:03;100301.25;;;-0.65;69.35
19795;BME280;10057;59.402;17.866;2023-03-31T02:13:31;100296.00;;;-0.69;69.46
19795;BME280;10057;59.402;17.866;2023-03-31T02:16:04;100300.34;;;-0.70;69.35
19795;BME280;10057;59.402;17.866;2023-03-31T02:18:33;100298.59;;;-0.69;69.31
19795;BME280;10057;59.402;17.866;2023-03-31T02:21:05;100302.06;;;-0.69;69.22
19795;BME280;10057;59.402;17.866;2023-03-31T02:23:35;100292.53;;;-0.67;69.48
19795;BME280;10057;59.402;17.866;2023-03-31T02:26:10;100291.66;;;-0.69;69.48
19795;BME280;10057;59.402;17.866;2023-03-31T02:28:39;100292.53;;;-0.68;69.13
19795;BME280;10057;59.402;17.866;2023-03-31T02:33:51;100303.84;;;-0.68;69.37
19795;BME280;10057;59.402;17.866;2023-03-31T02:36:18;100305.56;;;-0.68;69.24
19795;BME280;10057;59.402;17.866;2023-03-31T02:39:06;100303.81;;;-0.69;69.42
19795;BME280;10057;59.402;17.866;2023-03-31T02:41:34;100303.84;;;-0.71;69.35
19795;BME280;10057;59.402;17.866;2023-03-31T02:44:01;100302.09;;;-0.70;69.10
19795;BME280;10057;59.402;17.866;2023-03-31T02:46:28;100299.47;;;-0.70;69.33
19795;BME280;10057;59.402;17.866;2023-03-31T02:48:57;100302.06;;;-0.72;69.31
19795;BME280;10057;59.402;17.866;2023-03-31T03:07:48;100298.59;;;-0.79;69.20
19795;BME280;10057;59.402;17.866;2023-03-31T03:16:09;100289.91;;;-0.76;69.10
19795;BME280;10057;59.402;17.866;2023-03-31T03:18:39;100292.53;;;-0.75;69.27
19795;BME280;10057;59.402;17.866;2023-03-31T03:21:06;100296.88;;;-0.74;69.42
19795;BME280;10057;59.402;17.866;2023-03-31T03:23:32;100294.25;;;-0.72;69.33
19795;BME280;10057;59.402;17.866;2023-03-31T03:25:59;100295.13;;;-0.73;69.08
19795;BME280;10057;59.402;17.866;2023-03-31T03:28:26;100293.41;;;-0.74;69.39
19795;BME280;10057;59.402;17.866;2023-03-31T03:30:53;100298.59;;;-0.73;69.28
19795;BME280;10057;59.402;17.866;2023-03-31T03:33:19;100296.00;;;-0.74;69.02
19795;BME280;10057;59.402;17.866;2023-03-31T03:35:50;100295.16;;;-0.75;69.05
19795;BME280;10057;59.402;17.866;2023-03-31T03:38:17;100289.06;;;-0.74;69.26
19795;BME280;10057;59.402;17.866;2023-03-31T03:40:44;100294.28;;;-0.70;69.28
19795;BME280;10057;59.402;17.866;2023-03-31T03:43:11;100283.84;;;-0.70;69.23
19795;BME280;10057;59.402;17.866;2023-03-31T03:45:38;100287.34;;;-0.72;69.24
19795;BME280;10057;59.402;17.866;2023-03-31T03:48:05;100290.78;;;-0.73;69.01
19795;BME280;10057;59.402;17.866;2023-03-31T03:50:35;100289.94;;;-0.75;68.82
19795;BME280;10057;59.402;17.866;2023-03-31T03:53:01;100287.31;;;-0.76;69.00
19795;BME280;10057;59.402;17.866;2023-03-31T03:55:28;100286.47;;;-0.78;68.83
19795;BME280;10057;59.402;17.866;2023-03-31T03:57:55;100289.91;;;-0.79;69.29
19795;BME280;10057;59.402;17.866;2023-03-31T04:00:22;100289.91;;;-0.82;69.24
19795;BME280;10057;59.402;17.866;2023-03-31T04:02:48;100291.66;;;-0.81;69.17
19795;BME280;10057;59.402;17.866;2023-03-31T04:05:15;100299.44;;;-0.83;69.12
19795;BME280;10057;59.402;17.866;2023-03-31T04:07:42;100289.91;;;-0.82;68.96
19795;BME280;10057;59.402;17.866;2023-03-31T04:10:09;100289.06;;;-0.78;69.21
19795;BME280;10057;59.402;17.866;2023-03-31T04:12:36;100286.47;;;-0.78;69.21
19795;BME280;10057;59.402;17.866;2023-03-31T04:15:03;100282.94;;;-0.79;69.11
19795;BME280;10057;59.402;17.866;2023-03-31T04:17:33;100286.44;;;-0.80;68.90
19795;BME280;10057;59.402;17.866;2023-03-31T04:20:10;100282.09;;;-0.79;69.26
19795;BME280;10057;59.402;17.866;2023-03-31T04:22:38;100293.38;;;-0.76;68.93
19795;BME280;10057;59.402;17.866;2023-03-31T04:25:13;100288.19;;;-0.74;69.15
19795;BME280;10057;59.402;17.866;2023-03-31T04:27:44;100290.78;;;-0.76;68.99
19795;BME280;10057;59.402;17.866;2023-03-31T04:30:23;100282.09;;;-0.76;69.00
19795;BME280;10057;59.402;17.866;2023-03-31T04:33:01;100284.69;;;-0.76;69.10
19795;BME280;10057;59.402;17.866;2023-03-31T04:35:30;100280.34;;;-0.79;69.14
19795;BME280;10057;59.402;17.866;2023-03-31T04:38:20;100281.25;;;-0.78;69.09
19795;BME280;10057;59.402;17.866;2023-03-31T04:40:49;100280.34;;;-0.79;69.10
19795;BME280;10057;59.402;17.866;2023-03-31T04:43:17;100289.91;;;-0.76;69.00
19795;BME280;10057;59.402;17.866;2023-03-31T04:45:44;100276.03;;;-0.75;69.02
19795;BME280;10057;59.402;17.866;2023-03-31T04:48:11;100285.56;;;-0.76;68.94
19795;BME280;10057;59.402;17.866;2023-03-31T04:50:38;100276.91;;;-0.78;68.96
19795;BME280;10057;59.402;17.866;2023-03-31T04:53:05;100281.22;;;-0.77;69.04
19795;BME280;10057;59.402;17.866;2023-03-31T04:55:32;100289.06;;;-0.75;68.93
19795;BME280;10057;59.402;17.866;2023-03-31T04:57:59;100283.84;;;-0.75;68.83
19795;BME280;10057;59.402;17.866;2023-03-31T05:00:26;100291.66;;;-0.75;69.15
19795;BME280;10057;59.402;17.866;2023-03-31T05:02:54;100288.19;;;-0.77;68.92
19795;BME280;10057;59.402;17.866;2023-03-31T05:05:22;100299.47;;;-0.77;69.02
19795;BME280;10057;59.402;17.866;2023-03-31T05:07:49;100295.13;;;-0.76;69.20
19795;BME280;10057;59.402;17.866;2023-03-31T05:10:16;100295.13;;;-0.76;69.34
19795;BME280;10057;59.402;17.866;2023-03-31T05:12:43;100292.53;;;-0.73;69.12
19795;BME280;10057;59.402;17.866;2023-03-31T05:15:10;100302.09;;;-0.75;69.08
19795;BME280;10057;59.402;17.866;2023-03-31T05:17:37;100299.47;;;-0.72;69.31
19795;BME280;10057;59.402;17.866;2023-03-31T05:20:04;100292.53;;;-0.68;69.38
19795;BME280;10057;59.402;17.866;2023-03-31T05:22:39;100299.47;;;-0.66;68.89
19795;BME280;10057;59.402;17.866;2023-03-31T05:25:09;100295.13;;;-0.65;69.00
19795;BME280;10057;59.402;17.866;2023-03-31T05:27:37;100290.81;;;-0.65;69.16
19795;BME280;10057;59.402;17.866;2023-03-31T05:30:04;100296.03;;;-0.65;69.19
19795;BME280;10057;59.402;17.866;2023-03-31T05:32:31;100299.47;;;-0.66;68.89
19795;BME280;10057;59.402;17.866;2023-03-31T05:34:58;100298.63;;;-0.65;68.85
19795;BME280;10057;59.402;17.866;2023-03-31T05:37:25;100296.00;;;-0.69;68.92
19795;BME280;10057;59.402;17.866;2023-03-31T05:39:52;100293.41;;;-0.69;69.14
19795;BME280;10057;59.402;17.866;2023-03-31T05:42:19;100288.19;;;-0.71;69.10
19795;BME280;10057;59.402;17.866;2023-03-31T05:44:46;100293.41;;;-0.71;69.01
19795;BME280;10057;59.402;17.866;2023-03-31T05:47:13;100291.66;;;-0.72;68.99
19795;BME280;10057;59.402;17.866;2023-03-31T05:49:40;100290.78;;;-0.74;69.06
19795;BME280;10057;59.402;17.866;2023-03-31T05:52:07;100299.47;;;-0.74;68.91
19795;BME280;10057;59.402;17.866;2023-03-31T05:54:34;100291.66;;;-0.75;69.22
19795;BME280;10057;59.402;17.866;2023-03-31T05:57:01;100302.06;;;-0.72;69.02
19795;BME280;10057;59.402;17.866;2023-03-31T05:59:28;100300.34;;;-0.72;69.15
19795;BME280;10057;59.402;17.866;2023-03-31T06:01:55;100305.56;;;-0.68;69.38
19795;BME280;10057;59.402;17.866;2023-03-31T06:04:22;100298.63;;;-0.65;69.10
19795;BME280;10057;59.402;17.866;2023-03-31T06:06:49;100304.72;;;-0.61;69.29
19795;BME280;10057;59.402;17.866;2023-03-31T06:09:16;100297.78;;;-0.58;69.22
19795;BME280;10057;59.402;17.866;2023-03-31T06:11:43;100300.38;;;-0.55;69.04
19795;BME280;10057;59.402;17.866;2023-03-31T06:14:10;100305.56;;;-0.56;69.17
19795;BME280;10057;59.402;17.866;2023-03-31T06:16:37;100301.25;;;-0.53;68.97
19795;BME280;10057;59.402;17.866;2023-03-31T06:19:04;100304.72;;;-0.49;68.88
19795;BME280;10057;59.402;17.866;2023-03-31T06:21:31;100303.84;;;-0.46;68.94
19795;BME280;10057;59.402;17.866;2023-03-31T06:23:58;100298.66;;;-0.46;68.99
19795;BME280;10057;59.402;17.866;2023-03-31T06:26:26;100308.22;;;-0.44;69.13
19795;BME280;10057;59.402;17.866;2023-03-31T06:28:53;100298.63;;;-0.42;68.97
19795;BME280;10057;59.402;17.866;2023-03-31T06:31:22;100306.47;;;-0.39;68.97
19795;BME280;10057;59.402;17.866;2023-03-31T06:33:49;100307.34;;;-0.34;69.24
19795;BME280;10057;59.402;17.866;2023-03-31T06:36:19;100308.19;;;-0.29;69.23
19795;BME280;10057;59.402;17.866;2023-03-31T06:38:47;100310.78;;;-0.24;68.89
19795;BME280;10057;59.402;17.866;2023-03-31T06:41:15;100314.28;;;-0.19;69.22
19795;BME280;10057;59.402;17.866;2023-03-31T06:43:43;100310.81;;;-0.18;68.89
19795;BME280;10057;59.402;17.866;2023-03-31T06:46:10;100307.31;;;-0.14;69.00
19795;BME280;10057;59.402;17.866;2023-03-31T06:48:39;100311.69;;;-0.10;68.96
19795;BME280;10057;59.402;17.866;2023-03-31T06:51:07;100310.81;;;-0.12;68.70
19795;BME280;10057;59.402;17.866;2023-03-31T06:53:34;100308.22;;;-0.13;68.91
19795;BME280;10057;59.402;17.866;2023-03-31T06:56:02;100314.28;;;-0.14;68.81
19795;BME280;10057;59.402;17.866;2023-03-31T06:58:30;100314.28;;;-0.16;69.04
19795;BME280;10057;59.402;17.866;2023-03-31T07:00:57;100313.44;;;-0.16;69.04
19795;BME280;10057;59.402;17.866;2023-03-31T07:03:24;100308.19;;;-0.12;68.95
19795;BME280;10057;59.402;17.866;2023-03-31T07:05:52;100312.53;;;-0.08;69.01
19795;BME280;10057;59.402;17.866;2023-03-31T07:08:20;100316.88;;;-0.05;68.84
19795;BME280;10057;59.402;17.866;2023-03-31T07:10:52;100315.16;;;-0.02;69.08
19795;BME280;10057;59.402;17.866;2023-03-31T07:13:19;100316.88;;;0.06;69.24
19795;BME280;10057;59.402;17.866;2023-03-31T07:15:47;100314.25;;;0.12;68.93
19795;BME280;10057;59.402;17.866;2023-03-31T07:18:15;100322.94;;;0.17;69.01
19795;BME280;10057;59.402;17.866;2023-03-31T07:20:42;100319.47;;;0.19;69.29
19795;BME280;10057;59.402;17.866;2023-03-31T07:23:09;100325.53;;;0.26;68.93
19795;BME280;10057;59.402;17.866;2023-03-31T07:25:36;100321.19;;;0.31;69.04
19795;BME280;10057;59.402;17.866;2023-03-31T07:28:03;100325.53;;;0.38;69.08
19795;BME280;10057;59.402;17.866;2023-03-31T07:30:31;100327.25;;;0.39;68.88
19795;BME280;10057;59.402;17.866;2023-03-31T07:32:59;100328.13;;;0.41;68.70
19795;BME280;10057;59.402;17.866;2023-03-31T07:35:26;100328.09;;;0.47;68.80
19795;BME280;10057;59.402;17.866;2023-03-31T07:37:56;100322.00;;;0.53;68.69
19795;BME280;10057;59.402;17.866;2023-03-31T07:40:25;100322.00;;;0.59;68.54
19795;BME280;10057;59.402;17.866;2023-03-31T07:42:53;100324.59;;;0.61;68.51
19795;BME280;10057;59.402;17.866;2023-03-31T07:45:21;100329.81;;;0.58;68.52
19795;BME280;10057;59.402;17.866;2023-03-31T07:47:49;100333.28;;;0.61;68.45
19795;BME280;10057;59.402;17.866;2023-03-31T07:50:16;100324.59;;;0.65;68.48
19795;BME280;10057;59.402;17.866;2023-03-31T07:52:43;100326.28;;;0.77;68.65
19795;BME280;10057;59.402;17.866;2023-03-31T07:55:12;100319.25;;;0.85;68.18
19795;BME280;10057;59.402;17.866;2023-03-31T07:57:39;100322.72;;;0.93;68.03
19795;BME280;10057;59.402;17.866;2023-03-31T08:00:07;100323.56;;;1.02;68.52
19795;BME280;10057;59.402;17.866;2023-03-31T08:02:36;100322.66;;;1.10;68.30
19795;BME280;10057;59.402;17.866;2023-03-31T08:05:05;100326.94;;;1.21;68.07
19795;BME280;10057;59.402;17.866;2023-03-31T08:07:34;100325.16;;;1.29;68.12
19795;BME280;10057;59.402;17.866;2023-03-31T08:10:04;100337.31;;;1.34;67.76
19795;BME280;10057;59.402;17.866;2023-03-31T08:12:31;100339.84;;;1.43;68.23
19795;BME280;10057;59.402;17.866;2023-03-31T08:14:58;100338.06;;;1.55;68.05
19795;BME280;10057;59.402;17.866;2023-03-31T08:17:27;100334.50;;;1.65;68.27
19795;BME280;10057;59.402;17.866;2023-03-31T08:19:54;100327.47;;;1.73;68.28
19795;BME280;10057;59.402;17.866;2023-03-31T08:22:20;100332.59;;;1.85;68.23
19795;BME280;10057;59.402;17.866;2023-03-31T08:24:48;100327.28;;;1.95;67.89
19795;BME280;10057;59.402;17.866;2023-03-31T08:27:15;100318.53;;;1.99;67.79
19795;BME280;10057;59.402;17.866;2023-03-31T08:29:42;100328.03;;;2.07;67.94
19795;BME280;10057;59.402;17.866;2023-03-31T08:32:09;100324.50;;;2.13;67.91
19795;BME280;10057;59.402;17.866;2023-03-31T08:34:36;100326.19;;;2.19;67.42
19795;BME280;10057;59.402;17.866;2023-03-31T08:37:03;100330.50;;;2.26;67.49
19795;BME280;10057;59.402;17.866;2023-03-31T08:39:31;100334.00;;;2.26;66.95
19795;BME280;10057;59.402;17.866;2023-03-31T08:42:02;100334.03;;;2.23;66.97
19795;BME280;10057;59.402;17.866;2023-03-31T08:44:43;100327.91;;;2.23;66.83
19795;BME280;10057;59.402;17.866;2023-03-31T08:47:15;100331.31;;;2.31;66.93
19795;BME280;10057;59.402;17.866;2023-03-31T09:04:05;100329.03;;;4.52;69.06
19795;BME280;10057;59.402;17.866;2023-03-31T09:06:58;100334.81;;;4.69;68.67
19795;BME280;10057;59.402;17.866;2023-03-31T09:09:51;100328.66;;;4.70;67.48
19795;BME280;10057;59.402;17.866;2023-03-31T09:21:25;100340.94;;;4.22;65.51
19795;BME280;10057;59.402;17.866;2023-03-31T09:26:44;100336.84;;;4.06;65.41
19795;BME280;10057;59.402;17.866;2023-03-31T09:29:19;100336.97;;;3.96;65.28
19795;BME280;10057;59.402;17.866;2023-03-31T09:31:46;100345.81;;;3.92;65.36
19795;BME280;10057;59.402;17.866;2023-03-31T09:34:16;100345.97;;;3.82;65.01
19795;BME280;10057;59.402;17.866;2023-03-31T09:36:44;100346.03;;;3.78;65.15
19795;BME280;10057;59.402;17.866;2023-03-31T09:39:13;100349.63;;;3.71;65.17
19795;BME280;10057;59.402;17.866;2023-03-31T09:41:46;100348.03;;;3.61;64.95
19795;BME280;10057;59.402;17.866;2023-03-31T09:44:22;100348.13;;;3.55;64.23
19795;BME280;10057;59.402;17.866;2023-03-31T09:46:50;100350.78;;;3.52;64.22
19795;BME280;10057;59.402;17.866;2023-03-31T09:49:20;100351.69;;;3.51;64.08
19795;BME280;10057;59.402;17.866;2023-03-31T09:51:51;100343.00;;;3.49;63.74
19795;BME280;10057;59.402;17.866;2023-03-31T09:54:25;100342.00;;;3.54;63.56
19795;BME280;10057;59.402;17.866;2023-03-31T09:56:54;100334.91;;;3.63;63.31
19795;BME280;10057;59.402;17.866;2023-03-31T09:59:29;100340.94;;;3.68;63.23
19795;BME280;10057;59.402;17.866;2023-03-31T10:01:59;100340.94;;;3.69;63.12
19795;BME280;10057;59.402;17.866;2023-03-31T10:04:31;100336.47;;;3.74;62.91
19795;BME280;10057;59.402;17.866;2023-03-31T10:07:00;100349.47;;;3.84;63.36
19795;BME280;10057;59.402;17.866;2023-03-31T10:09:31;100348.47;;;3.91;62.61
19795;BME280;10057;59.402;17.866;2023-03-31T10:12:06;100347.66;;;3.86;62.43
19795;BME280;10057;59.402;17.866;2023-03-31T10:14:44;100353.69;;;3.92;62.38
19795;BME280;10057;59.402;17.866;2023-03-31T10:17:16;100348.38;;;3.95;62.34
19795;BME280;10057;59.402;17.866;2023-03-31T10:19:49;100339.41;;;4.09;62.48
19795;BME280;10057;59.402;17.866;2023-03-31T10:24:47;100345.00;;;4.40;62.11
19795;BME280;10057;59.402;17.866;2023-03-31T10:27:26;100344.94;;;4.43;61.95
19795;BME280;10057;59.402;17.866;2023-03-31T10:29:59;100349.28;;;4.45;61.39
19795;BME280;10057;59.402;17.866;2023-03-31T10:32:34;100347.63;;;4.40;61.08
19795;BME280;10057;59.402;17.866;2023-03-31T10:35:41;100346.00;;;4.34;60.97
19795;BME280;10057;59.402;17.866;2023-03-31T10:38:25;100348.63;;;4.33;61.30
19795;BME280;10057;59.402;17.866;2023-03-31T10:40:55;100349.53;;;4.32;61.15
19795;BME280;10057;59.402;17.866;2023-03-31T10:43:26;100347.00;;;4.25;61.03
19795;BME280;10057;59.402;17.866;2023-03-31T10:45:58;100350.69;;;4.15;60.66
19795;BME280;10057;59.402;17.866;2023-03-31T10:48:34;100354.97;;;4.21;61.17
19795;BME280;10057;59.402;17.866;2023-03-31T10:51:15;100345.16;;;4.31;61.00
19795;BME280;10057;59.402;17.866;2023-03-31T10:53:45;100341.56;;;4.38;61.33
19795;BME280;10057;59.402;17.866;2023-03-31T11:13:37;100344.56;;;5.08;60.02
19795;BME280;10057;59.402;17.866;2023-03-31T11:24:17;100342.19;;;5.36;59.20
19795;BME280;10057;59.402;17.866;2023-03-31T11:32:37;100339.50;;;5.39;58.21
19795;BME280;10057;59.402;17.866;2023-03-31T11:35:16;100341.06;;;5.46;58.09
19795;BME280;10057;59.402;17.866;2023-03-31T11:40:55;100343.06;;;5.75;57.69
19795;BME280;10057;59.402;17.866;2023-03-31T11:43:26;100334.91;;;5.86;57.81
19795;BME280;10057;59.402;17.866;2023-03-31T11:46:07;100332.09;;;5.95;57.16
19795;BME280;10057;59.402;17.866;2023-03-31T11:48:42;100332.69;;;6.05;57.01
19795;BME280;10057;59.402;17.866;2023-03-31T11:51:31;100329.28;;;6.01;56.63
19795;BME280;10057;59.402;17.866;2023-03-31T11:54:02;100338.00;;;6.03;56.39
19795;BME280;10057;59.402;17.866;2023-03-31T11:56:38;100329.34;;;5.98;56.27
19795;BME280;10057;59.402;17.866;2023-03-31T11:59:13;100328.59;;;5.93;56.33
19795;BME280;10057;59.402;17.866;2023-03-31T12:01:47;100340.22;;;5.83;56.05
19795;BME280;10057;59.402;17.866;2023-03-31T12:04:29;100345.56;;;5.80;56.46
19795;BME280;10057;59.402;17.866;2023-03-31T12:07:15;100337.66;;;5.80;55.93
19795;BME280;10057;59.402;17.866;2023-03-31T12:09:59;100345.78;;;5.70;55.30
19795;BME280;10057;59.402;17.866;2023-03-31T12:12:34;100344.34;;;5.57;55.41
19795;BME280;10057;59.402;17.866;2023-03-31T12:15:16;100340.22;;;5.45;54.62
19795;BME280;10057;59.402;17.866;2023-03-31T12:17:48;100336.97;;;5.34;55.13
19795;BME280;10057;59.402;17.866;2023-03-31T12:20:38;100332.75;;;5.26;54.53
19795;BME280;10057;59.402;17.866;2023-03-31T12:23:14;100324.00;;;5.27;54.61
19795;BME280;10057;59.402;17.866;2023-03-31T12:25:50;100332.00;;;5.20;54.64
19795;BME280;10057;59.402;17.866;2023-03-31T12:28:18;100331.00;;;5.26;54.74
19795;BME280;10057;59.402;17.866;2023-03-31T12:30:46;100335.25;;;5.32;55.03
19795;BME280;10057;59.402;17.866;2023-03-31T12:33:32;100332.53;;;5.36;54.26
19795;BME280;10057;59.402;17.866;2023-03-31T12:50:08;100324.19;;;4.74;53.30
19795;BME280;10057;59.402;17.866;2023-03-31T12:53:15;100322.69;;;4.62;53.15
19795;BME280;10057;59.402;17.866;2023-03-31T12:55:49;100327.25;;;4.53;53.02
19795;BME280;10057;59.402;17.866;2023-03-31T13:03:52;100312.88;;;4.70;52.40
19795;BME280;10057;59.402;17.866;2023-03-31T13:14:00;100318.66;;;4.89;52.37
19795;BME280;10057;59.402;17.866;2023-03-31T13:16:33;100320.44;;;4.87;52.11
19795;BME280;10057;59.402;17.866;2023-03-31T13:19:00;100324.84;;;4.85;51.75
19795;BME280;10057;59.402;17.866;2023-03-31T13:21:27;100338.19;;;4.76;51.73
19795;BME280;10057;59.402;17.866;2023-03-31T13:23:59;100335.72;;;4.67;51.43
19795;BME280;10057;59.402;17.866;2023-03-31T13:34:48;100331.97;;;4.34;50.85
19795;BME280;10057;59.402;17.866;2023-03-31T13:43:27;100332.16;;;4.23;50.73
19795;BME280;10057;59.402;17.866;2023-03-31T13:52:11;100346.88;;;3.80;50.62
19795;BME280;10057;59.402;17.866;2023-03-31T14:06:00;100339.47;;;3.50;50.13
19795;BME280;10057;59.402;17.866;2023-03-31T14:11:23;100340.50;;;3.40;50.41
19795;BME280;10057;59.402;17.866;2023-03-31T14:14:13;100338.69;;;3.42;50.12
19795;BME280;10057;59.402;17.866;2023-03-31T14:19:23;100342.25;;;3.38;50.20
19795;BME280;10057;59.402;17.866;2023-03-31T14:22:03;100351.03;;;3.37;50.54
19795;BME280;10057;59.402;17.866;2023-03-31T14:25:19;100347.50;;;3.38;50.12
19795;BME280;10057;59.402;17.866;2023-03-31T14:27:51;100343.22;;;3.30;49.87
19795;BME280;10057;59.402;17.866;2023-03-31T14:33:35;100350.31;;;3.24;50.35
19795;BME280;10057;59.402;17.866;2023-03-31T14:38:47;100341.50;;;3.29;50.43
19795;BME280;10057;59.402;17.866;2023-03-31T14:41:18;100343.22;;;3.30;50.29
19795;BME280;10057;59.402;17.866;2023-03-31T14:43:48;100349.28;;;3.36;50.25
19795;BME280;10057;59.402;17.866;2023-03-31T14:46:20;100344.00;;;3.39;50.23
19795;BME280;10057;59.402;17.866;2023-03-31T14:48:49;100349.16;;;3.45;50.52
19795;BME280;10057;59.402;17.866;2023-03-31T14:51:28;100349.97;;;3.50;50.24
19795;BME280;10057;59.402;17.866;2023-03-31T14:54:00;100359.53;;;3.54;50.33
19795;BME280;10057;59.402;17.866;2023-03-31T14:56:37;100353.31;;;3.60;50.51
19795;BME280;10057;59.402;17.866;2023-03-31T14:59:06;100348.00;;;3.64;50.25
19795;BME280;10057;59.402;17.866;2023-03-31T15:01:35;100359.41;;;3.63;50.16
19795;BME280;10057;59.402;17.866;2023-03-31T15:04:07;100364.63;;;3.63;50.14
19795;BME280;10057;59.402;17.866;2023-03-31T15:06:37;100377.78;;;3.60;50.23
19795;BME280;10057;59.402;17.866;2023-03-31T15:09:05;100374.34;;;3.55;49.76
19795;BME280;10057;59.402;17.866;2023-03-31T15:11:33;100377.13;;;3.44;49.58
19795;BME280;10057;59.402;17.866;2023-03-31T15:14:01;100374.66;;;3.33;49.59
19795;BME280;10057;59.402;17.866;2023-03-31T15:16:41;100372.97;;;3.28;49.94
19795;BME280;10057;59.402;17.866;2023-03-31T15:19:22;100382.66;;;3.23;49.65
19795;BME280;10057;59.402;17.866;2023-03-31T15:21:58;100382.75;;;3.18;49.82
19795;BME280;10057;59.402;17.866;2023-03-31T15:24:28;100381.88;;;3.16;50.03
19795;BME280;10057;59.402;17.866;2023-03-31T15:27:03;100380.94;;;3.22;50.27
19795;BME280;10057;59.402;17.866;2023-03-31T15:29:37;100379.00;;;3.35;50.27
19795;BME280;10057;59.402;17.866;2023-03-31T15:32:16;100378.84;;;3.47;49.81
19795;BME280;10057;59.402;17.866;2023-03-31T15:34:44;100382.25;;;3.52;49.88
19795;BME280;10057;59.402;17.866;2023-03-31T15:37:12;100376.16;;;3.53;49.94
19795;BME280;10057;59.402;17.866;2023-03-31T15:39:44;100379.63;;;3.53;49.61
19795;BME280;10057;59.402;17.866;2023-03-31T15:42:12;100372.66;;;3.51;49.66
19795;BME280;10057;59.402;17.866;2023-03-31T15:44:47;100372.72;;;3.49;49.56
19795;BME280;10057;59.402;17.866;2023-03-31T15:47:21;100384.06;;;3.50;49.76
19795;BME280;10057;59.402;17.866;2023-03-31T15:50:09;100389.34;;;3.47;49.90
19795;BME280;10057;59.402;17.866;2023-03-31T15:52:46;100386.75;;;3.44;49.59
19795;BME280;10057;59.402;17.866;2023-03-31T15:57:50;100393.88;;;3.36;49.46
19795;BME280;10057;59.402;17.866;2023-03-31T16:03:01;100396.66;;;3.25;49.26
19795;BME280;10057;59.402;17.866;2023-03-31T16:05:36;100400.19;;;3.19;49.52
19795;BME280;10057;59.402;17.866;2023-03-31T16:08:30;100404.72;;;3.08;49.39
19795;BME280;10057;59.402;17.866;2023-03-31T16:11:09;100413.47;;;3.04;49.79
19795;BME280;10057;59.402;17.866;2023-03-31T16:13:41;100416.16;;;3.01;49.64
19795;BME280;10057;59.402;17.866;2023-03-31T16:16:13;100413.53;;;3.01;49.64